Skogbrann Fra: 01-06-2020 10:00 Til: 04-06-2020 08:00 Advarsel for: Skogbrann Nivå: Gul info button

Nearby METAR Reports

 

ENRY - Rygge (nor-Afb), Norway
Distance from station: SØ 12km
Oppdatert: 01/06/2020 06:50
Klart
Klart
 Vind fra VSV
Vind: VSV 15 km/h
Temperatur: 25°C
Duggpunkt: 3°C
Fuktighet: 24%
Barometer: 1027 hPa
Clouds: Klart
Visibility: 10 km
2020/06/01 13:50 ENRY 011350Z AUTO 24008KT 210V280 9999NDV NCD 25/03 Q1027
ENTO - Torp (civ/Nor-Af, Norway
Distance from station: SV 34km
Oppdatert: 01/06/2020 06:50
Klart
Klart
 Vind fra S
Vind: S 13 km/h
Temperatur: 24°C
Duggpunkt: 3°C
Fuktighet: 25%
Barometer: 1027 hPa
Oversikt: Klart
Visibility: greater than 10 km
2020/06/01 13:50 ENTO 011350Z 19007KT 150V260 CAVOK 24/03 Q1027 NOSIG
 
ENNO - Notodden, Norway
Distance from station: V 80km
Oppdatert: 29/05/2020 05:50
NOT Current
Klart
Klart
 Vind fra ØSØ
Vind: ØSØ 13 km/h
Temperatur: 21°C
Duggpunkt: 3°C
Fuktighet: 31%
Barometer: 1029 hPa
Oversikt: Klart
Visibility: greater than 10 km
2020/05/29 12:50 ENNO 291250Z 12007KT CAVOK 21/03 Q1029
ENGM - Oslo/Gardermoen, Norway
Distance from station: NNØ 88km
Oppdatert: 01/06/2020 06:50
Klart
Klart
 Vind fra SSØ
Vind: SSØ 17 km/h
Temperatur: 26°C
Duggpunkt: 4°C
Fuktighet: 24%
Barometer: 1026 hPa
Oversikt: Klart
Visibility: greater than 10 km
2020/06/01 13:50 ENGM 011350Z 16009KT 130V220 CAVOK 26/04 Q1026 NOSIG
 
ESOK - Karlstad North, Sweden
Distance from station: Ø 153km
Oppdatert: 01/06/2020 06:20
Klart
Klart
 Vind fra varies
Vind: varies 6 km/h
Temperatur: 26°C
Duggpunkt: 6°C
Fuktighet: 28%
Barometer: 1026 hPa
Oversikt: Klart
Visibility: greater than 10 km
2020/06/01 13:20 ESOK 011320Z VRB03KT CAVOK 26/06 Q1026
ESST - Torsby, Sweden
Distance from station: ØNØ 154km
Oppdatert: 01/06/2020 06:20
Klart
Klart
 Vind fra varies
Vind: varies 6 km/h
Temperatur: 27°C
Duggpunkt: 6°C
Fuktighet: 26%
Barometer: 1026 hPa
Clouds: Klart
Visibility: 10 km
2020/06/01 13:20 ESST 011320Z AUTO VRB03KT 9999 NCD 27/06 Q1026
 
ESGT - Trollhattan (pvt, Sweden
Distance from station: SØ 159km
Oppdatert: 01/06/2020 06:50
Klart
Klart
 Vind fra N
Vind: N 17 km/h
Temperatur: 24°C
Duggpunkt: 5°C
Fuktighet: 29%
Barometer: 1026 hPa
Oversikt: Klart
Visibility: greater than 10 km
2020/06/01 13:50 ESGT 011350Z 36009KT CAVOK 24/05 Q1026
ESIB - Satenas (swe-Afb, Sweden
Distance from station: SØ 164km
Oppdatert: 01/06/2020 06:20
Klart
Klart
 Vind fra N
Vind: N 15 km/h
Temperatur: 23°C
Duggpunkt: 8°C
Fuktighet: 38%
Barometer: 1026 hPa
Oversikt: Klart
Visibility: greater than 10 km
2020/06/01 13:20 ESIB 011320Z 36008KT CAVOK 23/08 Q1026
 
ENCN - Kristiansand/Kje, Norway
Distance from station: SV 202km
Oppdatert: 01/06/2020 06:50
Klart
Klart
 Vind fra SSV
Vind: SSV 13 km/h
Temperatur: 19°C
Duggpunkt: 10°C
Fuktighet: 56%
Barometer: 1028 hPa
Oversikt: Klart
Visibility: greater than 10 km
2020/06/01 13:50 ENCN 011350Z 21007KT CAVOK 19/10 Q1028
EKSN - Sindal Airport, Denmark
Distance from station: S 217km
Oppdatert: 29/05/2020 05:50
NOT Current
Few Clouds
Few Clouds
 Vind fra varies
Vind: varies 13 km/h
Temperatur: 18°C
Duggpunkt: 7°C
Fuktighet: 49%
Barometer: 1030 hPa
Clouds: Few Clouds
Visibility: 10 km
Cloud details: Few Clouds 1067 m
2020/05/29 12:50 EKSN 291250Z VRB07KT 9999 FEW035 18/07 Q1030
 
ESGG - Goteborg/Landvet, Sweden
Distance from station: SSØ 220km
Oppdatert: 01/06/2020 06:50
Klart
Klart
 Vind fra NNØ
Vind: NNØ 15 km/h
Temperatur: 25°C
Duggpunkt: 7°C
Fuktighet: 32%
Barometer: 1026 hPa
Oversikt: Klart
Visibility: greater than 10 km
2020/06/01 13:50 ESGG 011350Z 03008KT CAVOK 25/07 Q1026
ESGR - Skovde Airport, Sweden
Distance from station: ØSØ 221km
Oppdatert: 01/06/2020 06:20
Klart
Klart
 Vind fra N
Vind: N 15 km/h
Temperatur: 25°C
Duggpunkt: 6°C
Fuktighet: 30%
Barometer: 1026 hPa
Oversikt: Klart
Visibility: greater than 10 km
2020/06/01 13:20 ESGR 011320Z 01008KT CAVOK 25/06 Q1026
 
ESOE - Orebro (private), Sweden
Distance from station: Ø 252km
Oppdatert: 01/06/2020 06:20
Klart
Klart
 Vind fra SØ
Vind: SØ 7 km/h
Temperatur: 26°C
Duggpunkt: 6°C
Fuktighet: 28%
Barometer: 1026 hPa
Clouds: Klart
Visibility: 10 km
2020/06/01 13:20 ESOE 011320Z AUTO 14004KT 080V180 9999 NCD 26/06 Q1026
EKYT - Alborg, Denmark
Distance from station: S 264km
Oppdatert: 01/06/2020 06:50
Klart
Klart
 Vind fra NNØ
Vind: NNØ 13 km/h
Temperatur: 24°C
Duggpunkt: 7°C
Fuktighet: 34%
Barometer: 1027 hPa
Clouds: Klart
Visibility: 10 km
2020/06/01 13:50 EKYT 011350Z AUTO 02007KT 340V050 9999 NCD 24/07 Q1027
 
ENSG - Sogndal/Haukasen, Norway
Distance from station: NV 269km
Oppdatert: 31/05/2020 11:50
NOT Current
Klart
Klart
 Vind fra varies
Vind: varies 4 km/h
Temperatur: 16°C
Duggpunkt: 6°C
Fuktighet: 52%
Barometer: 1031 hPa
Oversikt: Klart
Visibility: greater than 10 km
2020/05/31 18:50 ENSG 311850Z VRB02KT CAVOK 16/06 Q1031 RMK WIND 3806FT 07005KT
ESGJ - Jonkoping Airpor, Sweden
Distance from station: SØ 273km
Oppdatert: 01/06/2020 06:50
Klart
Klart
 Vind fra N
Vind: N 17 km/h
Temperatur: 22°C
Duggpunkt: 6°C
Fuktighet: 36%
Barometer: 1026 hPa
Oversikt: Klart
Visibility: greater than 10 km
2020/06/01 13:50 ESGJ 011350Z 36009KT CAVOK 22/06 Q1026
 
ENZV - Stavanger/Sola(A, Norway
Distance from station: V 292km
Oppdatert: 01/06/2020 06:50
Klart
Klart
 Vind fra VNV
Vind: VNV 9 km/h
Temperatur: 20°C
Duggpunkt: 5°C
Fuktighet: 38%
Barometer: 1029 hPa
Oversikt: Klart
Visibility: greater than 10 km
2020/06/01 13:50 ENZV 011350Z 30005KT CAVOK 20/05 Q1029 NOSIG
ESSD - Borlange (swe-Af, Sweden
Distance from station: ØNØ 292km
Oppdatert: 01/06/2020 06:20
Klart
Klart
 Vind fra V
Vind: V 6 km/h
Temperatur: 27°C
Duggpunkt: 6°C
Fuktighet: 26%
Barometer: 1025 hPa
Oversikt: Klart
Visibility: greater than 10 km
2020/06/01 13:20 ESSD 011320Z 27003KT 200V310 CAVOK 27/06 Q1025
 
ENSO - Stord/Soerstokke, Norway
Distance from station: V 300km
Oppdatert: 29/05/2020 05:50
NOT Current
Klart
Klart
 Vind fra NV
Vind: NV 15 km/h
Temperatur: 16°C
Duggpunkt: 6°C
Fuktighet: 52%
Barometer: 1031 hPa
Oversikt: Klart
Visibility: greater than 10 km
2020/05/29 12:50 ENSO 291250Z 32008KT 290V350 CAVOK 16/06 Q1031
ESCF - Linkoping/Malmen, Sweden
Distance from station: ØSØ 305km
Oppdatert: 01/06/2020 05:50
Klart
Klart
 Vind fra N
Vind: N 15 km/h
Temperatur: 24°C
Duggpunkt: 8°C
Fuktighet: 36%
Barometer: 1026 hPa
Oversikt: Klart
Visibility: greater than 10 km
2020/06/01 12:50 ESCF 011250Z 01008KT CAVOK 24/08 Q1026